Time;durP1;ratioP1;P1;durP2;ratioP2;P2;SDS_P1;SDS_P2;PMS_P1;PMS_P2;Temp;Humidity;BMP_temperature;BMP_pressure;BME280_temperature;BME280_humidity;BME280_pressure;Samples;Min_cycle;Max_cycle;Signal;HPM_P1;HPM_P2
2023/09/10 00:01:33;;;;;;;504.03;257.47;;;;;;;;;;4964993;28;20512;-57
2023/09/10 00:03:59;;;;;;;497.20;261.83;;;;;;;;;;4971576;28;20312;-58
2023/09/10 00:06:25;;;;;;;523.67;272.50;;;;;;;;;;4964514;28;20650;-57
2023/09/10 00:08:51;;;;;;;517.77;277.23;;;;;;;;;;4964754;28;20316;-59
2023/09/10 00:11:17;;;;;;;612.03;334.93;;;;;;;;;;4961243;28;21207;-59
2023/09/10 00:13:42;;;;;;;532.47;279.20;;;;;;;;;;4967920;28;20319;-58
2023/09/10 00:16:08;;;;;;;546.17;293.83;;;;;;;;;;4961884;28;20228;-59
2023/09/10 00:18:34;;;;;;;532.60;276.17;;;;;;;;;;4962282;28;20189;-59
2023/09/10 00:21:01;;;;;;;520.97;273.47;;;;;;;;;;4959132;28;20222;-59
2023/09/10 00:23:27;;;;;;;582.47;308.47;;;;;;;;;;4965444;28;20225;-59
2023/09/10 00:25:54;;;;;;;548.50;285.13;;;19.30;99.90;;;;;;4962810;28;20217;-56
2023/09/10 00:28:20;;;;;;;548.30;285.40;;;;;;;;;;4961397;28;20213;-57
2023/09/10 00:30:53;;;;;;;525.93;277.00;;;19.20;99.90;;;;;;4951786;28;20189;-57
2023/09/10 00:33:19;;;;;;;486.53;250.73;;;;;;;;;;4964557;28;20228;-57
2023/09/10 00:35:45;;;;;;;532.47;276.73;;;;;;;;;;4963198;28;20353;-56
2023/09/10 00:38:11;;;;;;;528.33;273.03;;;;;;;;;;4958747;28;20209;-57
2023/09/10 00:40:37;;;;;;;556.87;296.43;;;;;;;;;;4956867;28;20252;-57
2023/09/10 00:43:03;;;;;;;480.97;246.50;;;;;;;;;;4969211;28;20227;-57
2023/09/10 00:45:30;;;;;;;531.57;273.13;;;19.20;99.90;;;;;;4965129;28;20201;-57
2023/09/10 00:47:56;;;;;;;534.50;273.53;;;;;;;;;;4955534;28;20218;-57
2023/09/10 00:50:22;;;;;;;591.03;308.47;;;18.90;99.90;;;;;;4958440;28;20220;-57
2023/09/10 00:52:52;;;;;;;523.40;264.63;;;19.10;99.90;;;;;;4963872;28;20224;-57
2023/09/10 00:55:19;;;;;;;518.27;263.50;;;19.00;99.90;;;;;;4960647;28;20228;-57
2023/09/10 00:57:45;;;;;;;508.07;261.20;;;18.90;99.90;;;;;;4963983;28;20248;-57
2023/09/10 01:00:12;;;;;;;559.87;299.47;;;19.00;99.90;;;;;;4954321;28;20192;-57
2023/09/10 01:02:43;;;;;;;464.90;234.47;;;19.00;99.90;;;;;;4960945;28;20222;-57
2023/09/10 01:05:09;;;;;;;517.47;270.50;;;;;;;;;;4969285;28;20639;-57
2023/09/10 01:07:35;;;;;;;556.70;293.33;;;19.00;99.90;;;;;;4969327;28;20576;-57
2023/09/10 01:10:01;;;;;;;575.00;306.50;;;;;;;;;;4942547;28;20707;-57
2023/09/10 01:12:48;;;;;;;608.13;320.17;;;19.00;99.90;;;;;;4953229;28;20192;-57
2023/09/10 01:15:36;;;;;;;480.73;247.50;;;19.00;99.90;;;;;;4959390;28;20220;-57
2023/09/10 01:18:12;;;;;;;488.13;249.17;;;19.00;99.90;;;;;;4962614;28;20228;-58
2023/09/10 01:20:49;;;;;;;574.80;296.13;;;19.00;99.90;;;;;;4950660;28;20298;-58
2023/09/10 01:23:21;;;;;;;467.90;233.00;;;18.90;99.90;;;;;;4960331;28;20872;-57
2023/09/10 01:25:47;;;;;;;514.17;264.20;;;;;;;;;;4963439;28;21236;-57
2023/09/10 01:28:12;;;;;;;492.50;248.07;;;18.90;99.90;;;;;;4969068;28;21977;-57
2023/09/10 01:30:39;;;;;;;507.33;257.00;;;;;;;;;;4961642;28;20935;-58
2023/09/10 01:33:46;;;;;;;519.23;262.37;;;18.80;99.90;;;;;;4968368;28;20249;-57
2023/09/10 01:36:45;;;;;;;567.77;296.10;;;18.70;99.90;;;;;;4924351;28;20221;-58
2023/09/10 01:39:27;;;;;;;540.40;281.90;;;18.70;99.90;;;;;;4863952;28;21439;-58
2023/09/10 01:41:54;;;;;;;545.53;279.30;;;;;;;;;;4954143;28;20312;-57
2023/09/10 01:44:23;;;;;;;474.07;239.33;;;18.60;99.90;;;;;;4967016;28;20225;-57
2023/09/10 01:46:50;;;;;;;559.87;289.47;;;19.50;99.90;;;;;;4964565;28;20635;-57
2023/09/10 01:49:17;;;;;;;538.07;277.53;;;18.60;99.90;;;;;;4966970;28;20445;-57
2023/09/10 01:51:43;;;;;;;514.83;257.40;;;;;;;;;;4945848;28;20509;-57
2023/09/10 01:54:09;;;;;;;493.27;246.93;;;;;;;;;;4970048;28;20594;-57
2023/09/10 01:56:35;;;;;;;559.90;285.33;;;;;;;;;;4964449;28;20240;-57
2023/09/10 01:59:01;;;;;;;515.53;261.70;;;;;;;;;;4962340;28;20637;-57
2023/09/10 02:01:27;;;;;;;624.27;325.33;;;;;;;;;;4952900;28;20309;-57
2023/09/10 02:03:52;;;;;;;527.37;266.07;;;;;;;;;;4967062;28;20208;-57
2023/09/10 02:06:18;;;;;;;510.00;255.93;;;;;;;;;;4967312;28;20614;-57
2023/09/10 02:08:44;;;;;;;569.23;301.17;;;;;;;;;;4951062;28;20213;-57
2023/09/10 02:11:10;;;;;;;495.83;248.57;;;;;;;;;;4964142;28;20209;-57
2023/09/10 02:13:36;;;;;;;530.43;271.77;;;;;;;;;;4957997;28;21247;-57
2023/09/10 02:16:02;;;;;;;525.77;259.23;;;;;;;;;;4962461;28;20453;-57
2023/09/10 02:18:28;;;;;;;497.40;248.00;;;18.50;99.90;;;;;;4972450;28;20328;-57
2023/09/10 02:20:54;;;;;;;476.73;236.27;;;;;;;;;;4966258;28;20221;-57
2023/09/10 02:23:20;;;;;;;467.17;233.17;;;18.30;99.90;;;;;;4969539;28;20254;-57
2023/09/10 02:25:46;;;;;;;569.67;296.00;;;18.30;99.90;;;;;;4951771;28;20236;-57
2023/09/10 02:28:12;;;;;;;544.77;282.03;;;;;;;;;;4966883;28;20213;-57
2023/09/10 02:30:38;;;;;;;591.03;303.63;;;;;;;;;;4956674;28;20208;-57
2023/09/10 02:33:06;;;;;;;532.17;269.20;;;;;;;;;;4967267;28;20260;-57
2023/09/10 02:35:32;;;;;;;521.73;263.03;;;;;;;;;;4963881;28;20661;-57
2023/09/10 02:37:58;;;;;;;467.40;230.83;;;;;;;;;;4974145;28;20228;-57
2023/09/10 02:40:24;;;;;;;483.07;241.13;;;;;;;;;;4976198;28;20299;-57
2023/09/10 02:42:50;;;;;;;461.10;221.37;;;;;;;;;;4981129;28;20432;-57
2023/09/10 02:45:16;;;;;;;512.70;249.80;;;;;;;;;;4965566;28;20616;-57
2023/09/10 02:47:42;;;;;;;510.00;256.30;;;;;;;;;;4971211;28;20313;-57
2023/09/10 02:50:08;;;;;;;517.30;261.27;;;;;;;;;;4969802;28;20284;-57
2023/09/10 02:52:34;;;;;;;551.07;279.70;;;;;;;;;;4969570;28;21416;-57
2023/09/10 02:55:00;;;;;;;469.10;232.40;;;;;;;;;;4974750;28;20296;-57
2023/09/10 02:57:26;;;;;;;476.37;234.33;;;;;;;;;;4965084;28;20224;-57
2023/09/10 02:59:52;;;;;;;483.27;237.33;;;;;;;;;;4962759;28;20214;-56
2023/09/10 03:02:17;;;;;;;493.33;244.87;;;17.60;99.90;;;;;;4964239;28;20279;-57
2023/09/10 03:04:43;;;;;;;544.37;271.20;;;;;;;;;;4960776;28;20232;-57
2023/09/10 03:07:09;;;;;;;534.67;268.03;;;;;;;;;;4960116;28;20315;-57
2023/09/10 03:09:35;;;;;;;532.13;263.83;;;;;;;;;;4964952;28;20340;-57
2023/09/10 03:12:23;;;;;;;521.60;254.70;;;17.70;99.90;;;;;;4968686;28;20221;-57
2023/09/10 03:14:49;;;;;;;470.47;228.73;;;;;;;;;;4969064;28;20216;-57
2023/09/10 03:17:15;;;;;;;493.60;238.20;;;;;;;;;;4968971;28;20596;-57
2023/09/10 03:19:41;;;;;;;551.77;277.07;;;;;;;;;;4955414;28;20218;-57
2023/09/10 03:22:07;;;;;;;540.90;268.47;;;;;;;;;;4958445;28;22050;-57
2023/09/10 03:24:36;;;;;;;545.57;269.43;;;17.70;99.90;;;;;;4969067;28;20402;-57
2023/09/10 03:27:02;;;;;;;500.17;242.23;;;;;;;;;;4965601;28;20278;-57
2023/09/10 03:29:28;;;;;;;502.17;248.00;;;;;;;;;;4958855;28;23417;-57
2023/09/10 03:31:54;;;;;;;513.87;254.37;;;;;;;;;;4969656;28;20510;-57
2023/09/10 03:34:20;;;;;;;531.93;257.73;;;;;;;;;;4966524;28;20361;-57
2023/09/10 03:36:46;;;;;;;545.17;266.87;;;;;;;;;;4960578;28;20533;-57
2023/09/10 03:39:12;;;;;;;540.00;270.97;;;;;;;;;;4970084;28;20177;-57
2023/09/10 03:41:38;;;;;;;587.27;293.33;;;;;;;;;;4969179;28;20209;-58
2023/09/10 03:44:04;;;;;;;503.67;246.37;;;;;;;;;;4953835;28;20225;-57
2023/09/10 03:46:30;;;;;;;489.23;235.47;;;;;;;;;;4963824;28;20739;-57
2023/09/10 03:48:56;;;;;;;535.87;260.47;;;;;;;;;;4967390;28;20201;-57
2023/09/10 03:51:22;;;;;;;513.50;246.00;;;;;;;;;;4968725;28;20199;-57
2023/09/10 03:53:48;;;;;;;478.43;231.20;;;;;;;;;;4973114;28;20217;-57
2023/09/10 03:56:14;;;;;;;460.60;217.77;;;;;;;;;;4967419;28;20303;-57
2023/09/10 03:58:40;;;;;;;515.27;252.27;;;;;;;;;;4959863;28;20244;-58
2023/09/10 04:01:06;;;;;;;467.60;224.27;;;;;;;;;;4968354;28;20791;-57
2023/09/10 04:03:32;;;;;;;592.73;290.30;;;;;;;;;;4960280;28;20224;-58
2023/09/10 04:05:58;;;;;;;452.80;216.10;;;;;;;;;;4968436;28;20521;-58
2023/09/10 04:08:23;;;;;;;511.33;244.53;;;;;;;;;;4976993;28;20282;-58
2023/09/10 04:10:49;;;;;;;502.07;239.90;;;;;;;;;;4973359;28;20256;-58
2023/09/10 04:13:15;;;;;;;521.30;244.57;;;;;;;;;;4977602;28;20220;-58
2023/09/10 04:15:41;;;;;;;543.00;257.47;;;;;;;;;;4976540;28;20672;-58
2023/09/10 04:18:07;;;;;;;518.27;250.20;;;17.40;99.90;;;;;;4975531;28;20241;-58
2023/09/10 04:20:33;;;;;;;588.17;291.83;;;;;;;;;;4969054;28;20217;-58
2023/09/10 04:22:59;;;;;;;502.43;239.53;;;;;;;;;;4971832;28;20700;-58
2023/09/10 04:25:25;;;;;;;515.43;249.90;;;;;;;;;;4957026;28;20831;-58
2023/09/10 04:27:51;;;;;;;459.87;220.00;;;;;;;;;;4965745;28;20276;-58
2023/09/10 04:30:17;;;;;;;510.07;246.33;;;;;;;;;;4967559;28;20207;-58
2023/09/10 04:32:43;;;;;;;527.90;251.87;;;;;;;;;;4965319;28;20255;-58
2023/09/10 04:35:10;;;;;;;489.33;231.77;;;;;;;;;;4953282;28;22275;-58
2023/09/10 04:37:36;;;;;;;557.30;271.93;;;;;;;;;;4960360;28;20240;-58
2023/09/10 04:40:07;;;;;;;500.67;244.40;;;17.00;99.90;;;;;;4967659;28;20237;-58
2023/09/10 04:42:33;;;;;;;502.40;244.30;;;16.90;99.90;;;;;;4974907;28;20835;-58
2023/09/10 04:44:59;;;;;;;458.70;213.30;;;;;;;;;;4971086;28;20232;-58
2023/09/10 04:47:24;;;;;;;494.50;236.93;;;17.10;99.90;;;;;;4965143;28;20592;-58
2023/09/10 04:49:50;;;;;;;489.60;230.87;;;;;;;;;;4961339;28;20255;-58
2023/09/10 04:52:16;;;;;;;518.70;242.30;;;;;;;;;;4965883;28;20244;-59
2023/09/10 04:54:42;;;;;;;494.13;232.50;;;17.10;99.90;;;;;;4968738;28;20197;-57
2023/09/10 04:57:10;;;;;;;480.67;225.30;;;17.20;99.90;;;;;;4965573;28;20451;-58
2023/09/10 04:59:36;;;;;;;535.13;252.73;;;;;;;;;;4963771;28;20295;-58
2023/09/10 05:02:02;;;;;;;511.73;251.73;;;;;;;;;;4960785;28;20220;-58
2023/09/10 05:04:28;;;;;;;479.83;226.90;;;;;;;;;;4962255;28;20248;-58
2023/09/10 05:06:54;;;;;;;516.30;247.20;;;;;;;;;;4948884;28;20194;-58
2023/09/10 05:09:20;;;;;;;517.60;254.47;;;;;;;;;;4958000;28;20616;-58
2023/09/10 05:11:46;;;;;;;572.27;275.60;;;;;;;;;;4953363;28;20217;-58
2023/09/10 05:14:12;;;;;;;525.57;252.77;;;;;;;;;;4946647;28;20230;-58
2023/09/10 05:16:38;;;;;;;519.20;241.57;;;;;;;;;;4953310;28;20234;-58
2023/09/10 05:19:04;;;;;;;480.27;224.67;;;;;;;;;;4950716;28;20303;-58
2023/09/10 05:21:29;;;;;;;500.07;236.80;;;17.10;99.90;;;;;;4958041;28;20567;-58
2023/09/10 05:23:55;;;;;;;498.57;239.73;;;;;;;;;;4959374;28;20252;-58
2023/09/10 05:26:22;;;;;;;536.30;251.20;;;;;;;;;;4951852;28;20224;-58
2023/09/10 05:28:48;;;;;;;559.77;274.57;;;;;;;;;;4953657;28;20449;-58
2023/09/10 05:31:14;;;;;;;477.93;219.03;;;;;;;;;;4963515;28;20647;-59
2023/09/10 05:33:40;;;;;;;591.70;298.57;;;;;;;;;;4964902;28;20223;-58
2023/09/10 05:36:06;;;;;;;470.30;221.77;;;;;;;;;;4967049;28;20308;-57
2023/09/10 05:38:32;;;;;;;480.30;229.93;;;;;;;;;;4957033;28;20374;-57
2023/09/10 05:41:04;;;;;;;476.97;215.60;;;17.20;99.90;;;;;;4980698;28;20761;-57
2023/09/10 05:43:31;;;;;;;520.93;257.87;;;17.50;99.90;;;;;;4975471;28;20221;-57
2023/09/10 05:45:57;;;;;;;459.50;212.40;;;;;;;;;;4951858;28;20190;-57
2023/09/10 05:48:23;;;;;;;471.70;221.07;;;;;;;;;;4958114;28;20178;-57
2023/09/10 05:50:49;;;;;;;484.40;227.00;;;;;;;;;;4953893;28;20660;-57
2023/09/10 05:53:15;;;;;;;497.67;240.67;;;;;;;;;;4963567;28;20300;-57
2023/09/10 05:55:41;;;;;;;587.37;289.47;;;;;;;;;;4955796;28;20217;-58
2023/09/10 05:58:11;;;;;;;501.50;241.00;;;17.50;99.90;;;;;;4946043;28;20230;-58
2023/09/10 06:00:37;;;;;;;516.33;251.57;;;;;;;;;;4969745;28;20781;-58
2023/09/10 06:03:04;;;;;;;470.00;220.83;;;;;;;;;;4972622;28;20229;-57
2023/09/10 06:05:30;;;;;;;484.83;224.90;;;;;;;;;;4978313;28;20307;-57
2023/09/10 06:07:56;;;;;;;475.47;220.27;;;;;;;;;;4978581;28;20732;-57
2023/09/10 06:10:22;;;;;;;479.33;227.87;;;;;;;;;;4981543;28;20739;-57
2023/09/10 06:12:48;;;;;;;500.90;233.60;;;;;;;;;;4981428;28;20537;-58
2023/09/10 06:15:14;;;;;;;465.00;224.43;;;17.80;99.90;;;;;;4986580;28;20185;-57
2023/09/10 06:17:40;;;;;;;505.20;250.60;;;;;;;;;;4977100;28;20256;-58
2023/09/10 06:20:06;;;;;;;478.20;228.73;;;;;;;;;;4973460;28;20271;-57
2023/09/10 06:22:32;;;;;;;517.70;253.73;;;;;;;;;;4985003;28;20209;-58
2023/09/10 06:24:58;;;;;;;532.27;271.03;;;;;;;;;;4974727;28;20198;-57
2023/09/10 06:27:24;;;;;;;473.23;226.13;;;;;;;;;;4974645;28;20188;-57
2023/09/10 06:29:50;;;;;;;469.03;224.67;;;;;;;;;;4960809;28;20808;-58
2023/09/10 06:32:16;;;;;;;514.57;259.27;;;;;;;;;;4973748;28;20226;-58
2023/09/10 06:34:42;;;;;;;522.17;263.50;;;;;;;;;;4972754;28;20221;-58
2023/09/10 06:37:08;;;;;;;515.93;260.70;;;;;;;;;;4971919;28;20241;-58
2023/09/10 06:39:38;;;;;;;876.83;510.43;;;;;;;;;;4923030;28;20200;-58
2023/09/10 06:42:05;;;;;;;511.67;255.67;;;18.60;99.90;;;;;;4938256;28;20225;-58
2023/09/10 06:44:31;;;;;;;536.43;282.60;;;;;;;;;;4957887;28;20619;-59
2023/09/10 06:46:57;;;;;;;602.23;314.20;;;;;;;;;;4944965;28;20209;-58
2023/09/10 06:49:23;;;;;;;600.27;315.63;;;;;;;;;;4936041;28;20283;-55
2023/09/10 06:51:49;;;;;;;604.47;318.07;;;;;;;;;;4943543;28;20206;-55
2023/09/10 06:54:15;;;;;;;506.23;263.90;;;;;;;;;;4957012;28;20202;-55
2023/09/10 06:56:41;;;;;;;553.00;284.23;;;19.20;99.90;;;;;;4945382;28;20793;-55
2023/09/10 06:59:07;;;;;;;544.20;286.70;;;;;;;;;;4967298;28;20732;-55
2023/09/10 07:01:33;;;;;;;566.03;299.60;;;;;;;;;;4948724;28;20242;-55
2023/09/10 07:03:59;;;;;;;518.30;270.00;;;;;;;;;;4966425;28;20240;-55
2023/09/10 07:06:25;;;;;;;479.20;242.90;;;;;;;;;;4967715;28;20189;-55
2023/09/10 07:08:50;;;;;;;501.57;256.33;;;;;;;;;;4978114;28;20295;-55
2023/09/10 07:11:16;;;;;;;417.03;216.50;;;19.50;99.90;;;;;;4975531;28;20271;-55
2023/09/10 07:13:42;;;;;;;554.87;293.33;;;;;;;;;;4966176;28;20232;-55
2023/09/10 07:16:08;;;;;;;496.10;255.43;;;;;;;;;;4965717;28;20226;-55
2023/09/10 07:18:34;;;;;;;587.93;325.90;;;;;;;;;;4939380;28;20272;-55
2023/09/10 07:21:00;;;;;;;570.87;310.10;;;20.10;99.90;;;;;;4949894;28;20231;-55
2023/09/10 07:23:27;;;;;;;509.47;266.03;;;20.00;99.90;;;;;;4954665;28;20718;-55
2023/09/10 07:25:53;;;;;;;585.47;319.13;;;;;;;;;;4958111;28;20311;-55
2023/09/10 07:28:19;;;;;;;518.30;280.07;;;20.10;99.90;;;;;;4956572;28;20267;-56
2023/09/10 07:30:45;;;;;;;527.77;281.77;;;;;;;;;;4951467;28;20301;-59
2023/09/10 07:33:11;;;;;;;573.63;308.50;;;;;;;;;;4953167;28;20694;-59
2023/09/10 07:35:36;;;;;;;515.30;276.97;;;;;;;;;;4943995;28;20319;-59
2023/09/10 07:38:02;;;;;;;539.53;297.30;;;;;;;;;;4944481;28;20744;-59
2023/09/10 07:40:28;;;;;;;547.63;297.53;;;;;;;;;;4940406;28;20619;-59
2023/09/10 07:42:58;;;;;;;486.93;263.60;;;;;;;;;;4953761;28;20610;-59
2023/09/10 07:45:24;;;;;;;536.87;292.93;;;;;;;;;;4958951;28;20660;-59
2023/09/10 07:47:50;;;;;;;552.97;283.87;;;21.10;99.90;;;;;;4955502;28;20217;-59
2023/09/10 07:50:16;;;;;;;480.03;260.93;;;21.20;99.90;;;;;;4959602;28;20224;-59
2023/09/10 07:52:42;;;;;;;556.53;305.03;;;;;;;;;;4960494;28;20224;-60
2023/09/10 07:55:08;;;;;;;490.80;270.53;;;;;;;;;;4963412;28;20232;-59
2023/09/10 07:57:34;;;;;;;531.07;293.97;;;;;;;;;;4966936;28;20216;-60
2023/09/10 08:00:00;;;;;;;466.87;257.60;;;;;;;;;;4973748;28;20212;-59
2023/09/10 08:02:27;;;;;;;585.73;340.63;;;21.40;99.90;;;;;;4952773;28;29064;-59
2023/09/10 08:04:53;;;;;;;581.57;332.33;;;;;;;;;;4926017;28;20244;-58
2023/09/10 08:07:19;;;;;;;521.77;296.20;;;;;;;;;;4948667;28;20577;-58
2023/09/10 08:09:45;;;;;;;489.07;291.33;;;;;;;;;;4957745;28;20374;-59
2023/09/10 08:12:11;;;;;;;409.20;243.90;;;21.70;1.00;;;;;;4986438;28;20177;-58
2023/09/10 08:14:38;;;;;;;412.87;250.60;;;;;;;;;;4986239;28;20225;-59
2023/09/10 08:17:04;;;;;;;402.70;240.40;;;;;;;;;;4983099;28;20244;-58
2023/09/10 08:19:30;;;;;;;410.10;249.10;;;21.80;99.90;;;;;;4988508;28;20239;-57
2023/09/10 08:21:56;;;;;;;407.70;246.20;;;21.80;99.90;;;;;;4988317;28;20612;-58
2023/09/10 08:24:22;;;;;;;428.27;261.77;;;;;;;;;;4986967;28;20683;-57
2023/09/10 08:26:48;;;;;;;419.03;255.47;;;;;;;;;;4982684;28;20228;-58
2023/09/10 08:29:15;;;;;;;431.17;268.47;;;;;;;;;;4988515;28;20224;-58
2023/09/10 08:31:41;;;;;;;425.90;263.20;;;;;;;;;;4986292;28;20263;-58
2023/09/10 08:34:07;;;;;;;407.93;251.23;;;;;;;;;;4991465;28;20602;-58
2023/09/10 08:36:33;;;;;;;408.90;251.67;;;;;;;;;;4989927;28;20267;-58
2023/09/10 08:38:59;;;;;;;433.17;268.67;;;;;;;;;;4989714;28;20221;-58
2023/09/10 08:41:34;;;;;;;446.13;276.17;;;22.50;1.00;;;;;;4982430;28;20221;-58
2023/09/10 08:44:02;;;;;;;398.77;250.57;;;22.50;1.00;;;;;;4972270;28;20241;-58
2023/09/10 08:46:31;;;;;;;410.13;264.13;;;;;;;;;;4988567;28;20243;-58
2023/09/10 08:48:58;;;;;;;534.47;321.03;;;22.60;1.00;;;;;;4966596;28;20264;-58
2023/09/10 08:51:24;;;;;;;544.20;323.40;;;;;;;;;;4974418;28;20640;-59
2023/09/10 08:53:53;;;;;;;538.77;325.47;;;22.70;1.00;;;;;;4967463;28;20221;-58
2023/09/10 08:56:19;;;;;;;601.97;363.70;;;;;;;;;;4960650;28;20787;-58
2023/09/10 08:58:47;;;;;;;617.57;375.23;;;22.90;1.00;;;;;;4942002;28;20359;-58
2023/09/10 09:01:14;;;;;;;546.13;331.30;;;23.00;6.00;;;;;;4948594;28;20244;-58
2023/09/10 09:03:40;;;;;;;564.87;354.07;;;;;;;;;;4939614;28;20702;-58
2023/09/10 09:06:06;;;;;;;521.63;322.87;;;;;;;;;;4955359;28;22673;-58
2023/09/10 09:08:33;;;;;;;500.53;308.93;;;23.30;99.90;;;;;;4970130;28;20217;-58
2023/09/10 09:11:06;;;;;;;488.00;302.00;;;23.30;1.00;;;;;;4952380;28;20245;-57
2023/09/10 09:13:37;;;;;;;569.53;356.37;;;20.10;1.00;;;;;;4958455;28;20343;-58
2023/09/10 09:16:08;;;;;;;493.10;317.80;;;23.50;99.90;;;;;;4951045;28;20221;-58
2023/09/10 09:18:37;;;;;;;558.43;349.37;;;21.60;99.90;;;;;;4955896;28;23120;-58
2023/09/10 09:21:12;;;;;;;563.77;353.97;;;23.80;1.00;;;;;;4948359;28;20218;-62
2023/09/10 09:24:00;;;;;;;518.80;332.43;;;23.90;1.00;;;;;;4965952;28;20457;-62
2023/09/10 09:26:29;;;;;;;520.00;325.73;;;24.00;97.50;;;;;;4963036;28;20221;-59
2023/09/10 09:28:56;;;;;;;591.57;375.43;;;24.10;97.60;;;;;;4967200;28;20218;-62
2023/09/10 09:31:22;;;;;;;495.87;315.17;;;;;;;;;;4971431;28;20349;-60
2023/09/10 09:33:49;;;;;;;539.60;349.90;;;;;;;;;;4968987;28;20220;-59
2023/09/10 09:36:15;;;;;;;521.23;337.80;;;;;;;;;;4963793;28;20192;-59
2023/09/10 09:38:48;;;;;;;534.13;347.00;;;24.40;1.00;;;;;;4958018;28;20232;-59
2023/09/10 09:41:14;;;;;;;540.00;348.57;;;24.50;99.90;;;;;;4972912;28;20284;-59
2023/09/10 09:43:40;;;;;;;551.97;356.13;;;;;;;;;;4957978;28;20323;-57
2023/09/10 09:46:06;;;;;;;480.67;311.73;;;;;;;;;;4966165;28;20209;-59
2023/09/10 09:48:34;;;;;;;479.63;318.27;;;24.90;96.90;;;;;;4975327;28;20186;-57
2023/09/10 09:51:00;;;;;;;472.17;310.70;;;;;;;;;;4980419;28;20217;-59
2023/09/10 09:53:30;;;;;;;569.27;374.23;;;25.10;96.70;;;;;;4976870;28;20300;-58
2023/09/10 09:56:04;;;;;;;516.47;347.13;;;25.20;95.80;;;;;;4980920;28;20347;-59
2023/09/10 09:58:30;;;;;;;565.63;365.00;;;;;;;;;;4971270;28;21159;-59
2023/09/10 10:00:56;;;;;;;532.27;351.83;;;25.30;95.60;;;;;;4947410;28;20178;-58
2023/09/10 10:03:22;;;;;;;546.60;365.10;;;;;;;;;;4981958;23;20285;-62
2023/09/10 10:05:49;;;;;;;525.97;352.00;;;25.50;95.80;;;;;;4962816;28;20225;-77
2023/09/10 10:08:16;;;;;;;512.03;343.17;;;;;;;;;;4935718;28;20218;-57
2023/09/10 10:10:48;;;;;;;539.40;359.37;;;25.90;94.80;;;;;;4951516;28;20494;-57
2023/09/10 10:13:19;;;;;;;527.17;358.37;;;26.00;94.10;;;;;;4957742;28;20307;-58
2023/09/10 10:15:49;;;;;;;508.00;355.30;;;25.90;93.80;;;;;;4960961;28;20651;-59
2023/09/10 10:18:15;;;;;;;511.90;349.83;;;;;;;;;;4974454;28;20268;-58
2023/09/10 10:20:46;;;;;;;472.80;327.83;;;26.00;90.00;;;;;;4953065;28;20713;-63
2023/09/10 10:23:13;;;;;;;530.10;372.17;;;26.00;90.50;;;;;;4953984;28;20226;-58
2023/09/10 10:25:39;;;;;;;547.47;370.57;;;;;;;;;;4955563;28;20301;-58
2023/09/10 10:28:08;;;;;;;520.37;356.70;;;26.20;87.90;;;;;;4951125;28;20268;-59
2023/09/10 10:30:37;;;;;;;485.67;343.70;;;26.40;86.20;;;;;;4960092;28;20314;-58
2023/09/10 10:33:04;;;;;;;540.27;384.93;;;26.40;85.90;;;;;;4957330;28;20214;-57
2023/09/10 10:35:35;;;;;;;535.63;383.17;;;26.60;85.30;;;;;;4960313;28;20260;-60
2023/09/10 10:38:05;;;;;;;523.37;371.00;;;24.10;81.00;;;;;;4949850;28;20240;-59
2023/09/10 10:40:35;;;;;;;529.43;380.80;;;26.80;79.10;;;;;;4958554;28;20240;-60
2023/09/10 10:43:03;;;;;;;487.50;359.50;;;26.80;78.10;;;;;;4974221;28;20316;-59
2023/09/10 10:45:31;;;;;;;491.37;358.67;;;26.70;73.80;;;;;;4962839;28;20248;-58
2023/09/10 10:48:00;;;;;;;520.70;376.40;;;27.00;71.00;;;;;;4964029;28;20228;-58
2023/09/10 10:50:30;;;;;;;511.63;375.23;;;27.00;69.30;;;;;;4936073;28;20218;-67
2023/09/10 10:53:03;;;;;;;509.93;370.03;;;27.10;73.60;;;;;;4960783;28;20214;-63
2023/09/10 10:55:29;;;;;;;513.30;371.33;;;27.30;74.40;;;;;;4952468;28;20218;-62
2023/09/10 10:57:55;;;;;;;496.97;357.70;;;27.30;71.50;;;;;;4967213;28;20217;-62
2023/09/10 11:00:21;;;;;;;471.73;355.87;;;;;;;;;;4981548;28;20170;-63
2023/09/10 11:03:09;;;;;;;500.97;367.53;;;27.50;51.20;;;;;;4975481;28;20201;-63
2023/09/10 11:05:54;;;;;;;471.27;349.50;;;27.50;51.30;;;;;;4981539;28;20217;-63
2023/09/10 11:08:30;;;;;;;478.40;363.57;;;27.60;51.10;;;;;;4956962;28;20837;-63
2023/09/10 11:10:56;;;;;;;493.20;367.90;;;27.70;56.90;;;;;;4977305;28;20635;-62
2023/09/10 11:13:23;;;;;;;492.27;373.27;;;;;;;;;;4966578;28;20233;-63
2023/09/10 11:16:03;;;;;;;507.90;384.67;;;27.90;51.80;;;;;;4982000;28;20204;-63
2023/09/10 11:18:35;;;;;;;493.07;373.33;;;28.00;45.80;;;;;;4972844;28;20214;-63
2023/09/10 11:21:02;;;;;;;510.43;397.33;;;28.30;42.60;;;;;;4980902;28;20214;-62
2023/09/10 11:23:28;;;;;;;495.40;378.87;;;;;;;;;;4984337;28;20225;-63
2023/09/10 11:26:13;;;;;;;486.93;388.27;;;28.30;39.90;;;;;;4981321;28;20301;-63
2023/09/10 11:28:55;;;;;;;464.73;358.83;;;28.20;38.90;;;;;;4977317;28;20213;-62
2023/09/10 11:31:38;;;;;;;493.17;373.27;;;28.90;39.00;;;;;;4982447;28;20215;-63
2023/09/10 11:36:46;;;;;;;488.30;382.00;;;26.40;33.40;;;;;;4977774;28;20213;-63
2023/09/10 11:39:13;;;;;;;495.77;384.73;;;;;;;;;;4977424;28;20244;-62
2023/09/10 11:41:39;;;;;;;511.03;391.57;;;;;;;;;;4980031;28;20255;-63
2023/09/10 11:44:05;;;;;;;492.47;394.10;;;28.90;33.70;;;;;;4946736;28;20387;-62
2023/09/10 11:46:31;;;;;;;524.00;411.20;;;;;;;;;;4941784;28;20333;-62
2023/09/10 11:48:58;;;;;;;519.50;410.50;;;;;;;;;;4953341;28;20693;-62
2023/09/10 11:51:24;;;;;;;491.27;383.93;;;;;;;;;;4976040;28;20220;-63
2023/09/10 11:53:50;;;;;;;495.53;392.70;;;;;;;;;;4970937;28;20341;-62
2023/09/10 11:56:16;;;;;;;509.57;401.73;;;;;;;;;;4975546;28;20664;-62
2023/09/10 11:58:42;;;;;;;492.53;389.43;;;;;;;;;;4950166;28;20296;-62
2023/09/10 12:01:09;;;;;;;503.07;394.50;;;;;;;;;;4973401;28;20217;-62
2023/09/10 12:03:35;;;;;;;516.17;409.97;;;;;;;;;;4965723;28;20206;-62
2023/09/10 12:06:02;;;;;;;489.83;395.47;;;;;;;;;;4966602;28;20663;-63
2023/09/10 12:08:28;;;;;;;507.17;406.63;;;;;;;;;;4970946;28;20213;-64
2023/09/10 12:11:03;;;;;;;551.20;434.50;;;30.10;30.60;;;;;;4961062;28;20224;-63
2023/09/10 12:13:29;;;;;;;553.63;437.60;;;;;;;;;;4962132;28;20260;-64
2023/09/10 12:15:54;;;;;;;547.90;430.17;;;;;;;;;;4960678;28;20353;-63
2023/09/10 12:18:21;;;;;;;490.90;399.87;;;30.40;29.30;;;;;;4956565;28;20269;-77
2023/09/10 12:20:47;;;;;;;517.90;423.47;;;30.60;32.60;;;;;;4952387;28;20218;-76
2023/09/10 12:23:13;;;;;;;514.33;413.23;;;30.50;28.90;;;;;;4962781;28;20272;-78
2023/09/10 12:25:39;;;;;;;528.60;425.90;;;;;;;;;;4943224;28;20305;-77
2023/09/10 12:28:09;;;;;;;529.43;426.83;;;30.70;28.50;;;;;;4973827;28;20312;-80
2023/09/10 12:30:35;;;;;;;428.10;381.93;;;;;;;;;;4982263;28;20181;-78
2023/09/10 12:33:01;;;;;;;453.70;401.77;;;31.00;31.80;;;;;;4978655;28;20210;-76
2023/09/10 12:35:28;;;;;;;435.13;388.27;;;30.90;28.20;;;;;;4983591;28;20222;-79
2023/09/10 12:37:54;;;;;;;451.57;401.73;;;31.00;27.40;;;;;;4963969;28;20217;-78
2023/09/10 12:40:21;;;;;;;445.13;396.70;;;31.20;27.90;;;;;;4984082;28;20267;-78
2023/09/10 12:42:48;;;;;;;451.07;404.10;;;31.20;26.80;;;;;;4962214;28;20197;-78
2023/09/10 12:45:14;;;;;;;449.83;401.87;;;;;;;;;;4967235;28;20201;-77
2023/09/10 12:47:40;;;;;;;448.83;401.17;;;;;;;;;;4979961;28;20214;-80
2023/09/10 12:50:07;;;;;;;461.67;413.23;;;31.60;26.20;;;;;;4955755;28;20218;-79
2023/09/10 12:52:33;;;;;;;463.63;414.33;;;31.90;26.40;;;;;;4983464;28;20248;-76
2023/09/10 12:55:00;;;;;;;477.37;428.43;;;32.00;26.40;;;;;;4982029;28;20217;-78
2023/09/10 12:57:28;;;;;;;465.35;416.73;;;;;;;;;;4982630;28;20789;-78
2023/09/10 12:59:54;;;;;;;476.10;427.08;;;;;;;;;;4960843;28;20308;-78
2023/09/10 13:02:38;;;;;;;495.83;446.43;;;34.30;25.60;;;;;;4982599;28;20330;-78
2023/09/10 13:05:04;;;;;;;476.08;426.98;;;32.40;24.20;;;;;;4974327;28;20737;-77
2023/09/10 13:07:30;;;;;;;511.20;457.15;;;;;;;;;;4961318;28;20245;-79
2023/09/10 13:09:56;;;;;;;485.05;435.60;;;32.60;23.00;;;;;;4980664;28;20548;-79
2023/09/10 13:12:22;;;;;;;498.17;449.13;;;;;;;;;;4964969;28;20181;-78
2023/09/10 13:14:48;;;;;;;484.33;436.27;;;;;;;;;;4976823;28;20217;-79
2023/09/10 13:17:13;;;;;;;483.15;435.23;;;;;;;;;;4980989;28;20209;-78